sensor_id;sensor_type;location;lat;lon;timestamp;P1;durP1;ratioP1;P2;durP2;ratioP2
7239;SDS011;3661;53.288;10.458;2023-07-22T00:00:39;1682.10;;;999.90;;
7239;SDS011;3661;53.288;10.458;2023-07-22T00:03:13;1687.80;;;999.90;;
7239;SDS011;3661;53.288;10.458;2023-07-22T00:05:45;1680.40;;;999.90;;
7239;SDS011;3661;53.288;10.458;2023-07-22T00:08:18;1682.77;;;999.90;;
7239;SDS011;3661;53.288;10.458;2023-07-22T00:10:50;1655.47;;;999.90;;
7239;SDS011;3661;53.288;10.458;2023-07-22T00:13:23;1688.22;;;999.90;;
7239;SDS011;3661;53.288;10.458;2023-07-22T00:15:56;1677.95;;;999.90;;
7239;SDS011;3661;53.288;10.458;2023-07-22T00:18:31;1668.50;;;999.90;;
7239;SDS011;3661;53.288;10.458;2023-07-22T00:21:04;1686.57;;;999.90;;
7239;SDS011;3661;53.288;10.458;2023-07-22T00:23:39;1688.32;;;999.90;;
7239;SDS011;3661;53.288;10.458;2023-07-22T00:26:11;1675.90;;;999.90;;
7239;SDS011;3661;53.288;10.458;2023-07-22T00:28:43;1669.30;;;999.90;;
7239;SDS011;3661;53.288;10.458;2023-07-22T00:31:16;1669.10;;;999.90;;
7239;SDS011;3661;53.288;10.458;2023-07-22T00:33:50;1654.43;;;999.90;;
7239;SDS011;3661;53.288;10.458;2023-07-22T00:36:22;1670.32;;;999.90;;
7239;SDS011;3661;53.288;10.458;2023-07-22T00:38:55;1665.03;;;999.90;;
7239;SDS011;3661;53.288;10.458;2023-07-22T00:41:27;1645.95;;;999.90;;
7239;SDS011;3661;53.288;10.458;2023-07-22T00:43:59;1662.10;;;999.90;;
7239;SDS011;3661;53.288;10.458;2023-07-22T00:46:35;1680.97;;;999.90;;
7239;SDS011;3661;53.288;10.458;2023-07-22T00:49:09;1669.07;;;999.90;;
7239;SDS011;3661;53.288;10.458;2023-07-22T00:51:42;1654.27;;;999.90;;
7239;SDS011;3661;53.288;10.458;2023-07-22T00:54:14;1656.18;;;999.90;;
7239;SDS011;3661;53.288;10.458;2023-07-22T00:56:46;1664.88;;;999.90;;
7239;SDS011;3661;53.288;10.458;2023-07-22T00:59:19;1657.78;;;999.90;;
7239;SDS011;3661;53.288;10.458;2023-07-22T01:01:53;1678.90;;;999.90;;
7239;SDS011;3661;53.288;10.458;2023-07-22T01:04:30;1674.07;;;999.90;;
7239;SDS011;3661;53.288;10.458;2023-07-22T01:07:06;1657.10;;;999.90;;
7239;SDS011;3661;53.288;10.458;2023-07-22T01:09:43;1655.30;;;999.90;;
7239;SDS011;3661;53.288;10.458;2023-07-22T01:12:16;1663.40;;;999.90;;
7239;SDS011;3661;53.288;10.458;2023-07-22T01:14:50;1661.38;;;999.90;;
7239;SDS011;3661;53.288;10.458;2023-07-22T01:17:22;1654.35;;;999.90;;
7239;SDS011;3661;53.288;10.458;2023-07-22T01:19:59;1663.55;;;999.90;;
7239;SDS011;3661;53.288;10.458;2023-07-22T01:22:32;1670.18;;;999.90;;
7239;SDS011;3661;53.288;10.458;2023-07-22T01:25:09;1641.78;;;999.90;;
7239;SDS011;3661;53.288;10.458;2023-07-22T01:27:42;1682.78;;;999.90;;
7239;SDS011;3661;53.288;10.458;2023-07-22T01:30:15;1643.30;;;999.90;;
7239;SDS011;3661;53.288;10.458;2023-07-22T01:32:48;1644.70;;;999.90;;
7239;SDS011;3661;53.288;10.458;2023-07-22T01:35:22;1627.82;;;999.90;;
7239;SDS011;3661;53.288;10.458;2023-07-22T01:37:57;1645.57;;;999.90;;
7239;SDS011;3661;53.288;10.458;2023-07-22T01:40:33;1641.60;;;999.90;;
7239;SDS011;3661;53.288;10.458;2023-07-22T01:43:06;1634.22;;;999.90;;
7239;SDS011;3661;53.288;10.458;2023-07-22T01:45:40;1645.75;;;999.90;;
7239;SDS011;3661;53.288;10.458;2023-07-22T01:48:13;1642.45;;;999.90;;
7239;SDS011;3661;53.288;10.458;2023-07-22T01:50:45;1659.47;;;999.90;;
7239;SDS011;3661;53.288;10.458;2023-07-22T01:53:20;1650.95;;;999.90;;
7239;SDS011;3661;53.288;10.458;2023-07-22T01:55:53;1678.90;;;999.90;;
7239;SDS011;3661;53.288;10.458;2023-07-22T01:58:26;1669.60;;;999.90;;
7239;SDS011;3661;53.288;10.458;2023-07-22T02:00:58;1648.45;;;999.90;;
7239;SDS011;3661;53.288;10.458;2023-07-22T02:03:30;1646.57;;;999.90;;
7239;SDS011;3661;53.288;10.458;2023-07-22T02:06:03;1641.47;;;999.90;;
7239;SDS011;3661;53.288;10.458;2023-07-22T02:08:35;1610.90;;;999.90;;
7239;SDS011;3661;53.288;10.458;2023-07-22T02:11:09;1635.47;;;999.90;;
7239;SDS011;3661;53.288;10.458;2023-07-22T02:13:42;1632.82;;;999.90;;
7239;SDS011;3661;53.288;10.458;2023-07-22T02:16:14;1650.43;;;999.90;;
7239;SDS011;3661;53.288;10.458;2023-07-22T02:18:47;1627.40;;;999.90;;
7239;SDS011;3661;53.288;10.458;2023-07-22T02:21:19;1649.40;;;999.90;;
7239;SDS011;3661;53.288;10.458;2023-07-22T02:23:52;1643.50;;;999.90;;
7239;SDS011;3661;53.288;10.458;2023-07-22T02:26:26;1623.70;;;999.90;;
7239;SDS011;3661;53.288;10.458;2023-07-22T02:29:00;1610.77;;;999.90;;
7239;SDS011;3661;53.288;10.458;2023-07-22T02:31:32;1638.68;;;999.90;;
7239;SDS011;3661;53.288;10.458;2023-07-22T02:34:04;1617.80;;;999.90;;
7239;SDS011;3661;53.288;10.458;2023-07-22T02:36:37;1628.88;;;999.90;;
7239;SDS011;3661;53.288;10.458;2023-07-22T02:39:09;1617.90;;;999.90;;
7239;SDS011;3661;53.288;10.458;2023-07-22T02:41:42;1638.93;;;999.90;;
7239;SDS011;3661;53.288;10.458;2023-07-22T02:44:14;1597.13;;;999.90;;
7239;SDS011;3661;53.288;10.458;2023-07-22T02:46:47;1614.70;;;999.90;;
7239;SDS011;3661;53.288;10.458;2023-07-22T02:49:19;1605.13;;;999.90;;
7239;SDS011;3661;53.288;10.458;2023-07-22T02:51:52;1613.25;;;999.90;;
7239;SDS011;3661;53.288;10.458;2023-07-22T02:54:24;1587.87;;;999.90;;
7239;SDS011;3661;53.288;10.458;2023-07-22T02:57:05;1590.70;;;999.90;;
7239;SDS011;3661;53.288;10.458;2023-07-22T02:59:40;1599.78;;;999.90;;
7239;SDS011;3661;53.288;10.458;2023-07-22T03:02:13;1586.65;;;999.90;;
7239;SDS011;3661;53.288;10.458;2023-07-22T03:04:45;1578.20;;;999.90;;
7239;SDS011;3661;53.288;10.458;2023-07-22T03:07:18;1610.83;;;999.90;;
7239;SDS011;3661;53.288;10.458;2023-07-22T03:09:52;1591.60;;;999.90;;
7239;SDS011;3661;53.288;10.458;2023-07-22T03:12:26;1614.95;;;999.90;;
7239;SDS011;3661;53.288;10.458;2023-07-22T03:15:00;1601.35;;;999.90;;
7239;SDS011;3661;53.288;10.458;2023-07-22T03:17:34;1589.18;;;999.90;;
7239;SDS011;3661;53.288;10.458;2023-07-22T03:20:07;1599.25;;;999.90;;
7239;SDS011;3661;53.288;10.458;2023-07-22T03:22:45;1597.00;;;999.90;;
7239;SDS011;3661;53.288;10.458;2023-07-22T03:25:19;1601.47;;;999.90;;
7239;SDS011;3661;53.288;10.458;2023-07-22T03:27:54;1585.85;;;999.90;;
7239;SDS011;3661;53.288;10.458;2023-07-22T03:30:26;1563.28;;;999.90;;
7239;SDS011;3661;53.288;10.458;2023-07-22T03:32:59;1588.27;;;999.90;;
7239;SDS011;3661;53.288;10.458;2023-07-22T03:35:32;1587.63;;;999.90;;
7239;SDS011;3661;53.288;10.458;2023-07-22T03:38:04;1587.15;;;999.90;;
7239;SDS011;3661;53.288;10.458;2023-07-22T03:40:37;1586.30;;;999.90;;
7239;SDS011;3661;53.288;10.458;2023-07-22T03:43:11;1571.23;;;999.90;;
7239;SDS011;3661;53.288;10.458;2023-07-22T03:45:43;1586.57;;;999.90;;
7239;SDS011;3661;53.288;10.458;2023-07-22T03:48:15;1595.27;;;999.90;;
7239;SDS011;3661;53.288;10.458;2023-07-22T03:50:47;1574.82;;;999.90;;
7239;SDS011;3661;53.288;10.458;2023-07-22T03:53:19;1549.68;;;999.90;;
7239;SDS011;3661;53.288;10.458;2023-07-22T03:55:51;1563.88;;;999.90;;
7239;SDS011;3661;53.288;10.458;2023-07-22T03:58:25;1567.00;;;999.90;;
7239;SDS011;3661;53.288;10.458;2023-07-22T04:00:57;1570.70;;;999.90;;
7239;SDS011;3661;53.288;10.458;2023-07-22T04:03:29;1567.57;;;999.90;;
7239;SDS011;3661;53.288;10.458;2023-07-22T04:06:02;1572.27;;;999.90;;
7239;SDS011;3661;53.288;10.458;2023-07-22T04:08:34;1582.05;;;999.90;;
7239;SDS011;3661;53.288;10.458;2023-07-22T04:11:07;1578.22;;;999.90;;
7239;SDS011;3661;53.288;10.458;2023-07-22T04:13:40;1592.00;;;999.90;;
7239;SDS011;3661;53.288;10.458;2023-07-22T04:16:13;1567.45;;;999.90;;
7239;SDS011;3661;53.288;10.458;2023-07-22T04:18:45;1567.97;;;999.90;;
7239;SDS011;3661;53.288;10.458;2023-07-22T04:21:18;1555.97;;;999.90;;
7239;SDS011;3661;53.288;10.458;2023-07-22T04:23:51;1595.85;;;999.90;;
7239;SDS011;3661;53.288;10.458;2023-07-22T04:26:23;1553.27;;;999.90;;
7239;SDS011;3661;53.288;10.458;2023-07-22T04:28:57;1567.68;;;999.90;;
7239;SDS011;3661;53.288;10.458;2023-07-22T04:31:29;1558.63;;;999.90;;
7239;SDS011;3661;53.288;10.458;2023-07-22T04:34:01;1572.18;;;999.90;;
7239;SDS011;3661;53.288;10.458;2023-07-22T04:36:33;1573.82;;;999.90;;
7239;SDS011;3661;53.288;10.458;2023-07-22T04:39:06;1563.22;;;999.90;;
7239;SDS011;3661;53.288;10.458;2023-07-22T04:41:39;1587.15;;;999.90;;
7239;SDS011;3661;53.288;10.458;2023-07-22T04:44:12;1593.28;;;999.90;;
7239;SDS011;3661;53.288;10.458;2023-07-22T04:46:46;1587.27;;;999.90;;
7239;SDS011;3661;53.288;10.458;2023-07-22T04:49:19;1584.32;;;999.90;;
7239;SDS011;3661;53.288;10.458;2023-07-22T04:51:52;1560.35;;;999.90;;
7239;SDS011;3661;53.288;10.458;2023-07-22T04:54:24;1572.93;;;999.90;;
7239;SDS011;3661;53.288;10.458;2023-07-22T04:56:58;1596.45;;;999.90;;
7239;SDS011;3661;53.288;10.458;2023-07-22T04:59:32;1611.68;;;999.90;;
7239;SDS011;3661;53.288;10.458;2023-07-22T05:02:06;1577.38;;;999.90;;
7239;SDS011;3661;53.288;10.458;2023-07-22T05:04:38;1589.30;;;999.90;;
7239;SDS011;3661;53.288;10.458;2023-07-22T05:07:10;1589.43;;;999.90;;
7239;SDS011;3661;53.288;10.458;2023-07-22T05:09:42;1614.45;;;999.90;;
7239;SDS011;3661;53.288;10.458;2023-07-22T05:12:14;1596.53;;;999.90;;
7239;SDS011;3661;53.288;10.458;2023-07-22T05:14:48;1610.50;;;999.90;;
7239;SDS011;3661;53.288;10.458;2023-07-22T05:17:20;1592.53;;;999.90;;
7239;SDS011;3661;53.288;10.458;2023-07-22T05:19:52;1624.20;;;999.90;;
7239;SDS011;3661;53.288;10.458;2023-07-22T05:22:24;1616.07;;;999.90;;
7239;SDS011;3661;53.288;10.458;2023-07-22T05:24:56;1612.30;;;999.90;;
7239;SDS011;3661;53.288;10.458;2023-07-22T05:27:29;1618.80;;;999.90;;
7239;SDS011;3661;53.288;10.458;2023-07-22T05:30:03;1610.65;;;999.90;;
7239;SDS011;3661;53.288;10.458;2023-07-22T05:32:37;1619.43;;;999.90;;
7239;SDS011;3661;53.288;10.458;2023-07-22T05:35:09;1614.85;;;999.90;;
7239;SDS011;3661;53.288;10.458;2023-07-22T05:37:41;1614.10;;;999.90;;
7239;SDS011;3661;53.288;10.458;2023-07-22T05:40:15;1620.18;;;999.90;;
7239;SDS011;3661;53.288;10.458;2023-07-22T05:42:50;1619.88;;;999.90;;
7239;SDS011;3661;53.288;10.458;2023-07-22T05:45:24;1622.75;;;999.90;;
7239;SDS011;3661;53.288;10.458;2023-07-22T05:47:57;1638.70;;;999.90;;
7239;SDS011;3661;53.288;10.458;2023-07-22T05:50:30;1637.05;;;999.90;;
7239;SDS011;3661;53.288;10.458;2023-07-22T05:53:02;1640.72;;;999.90;;
7239;SDS011;3661;53.288;10.458;2023-07-22T05:55:34;1623.97;;;999.90;;
7239;SDS011;3661;53.288;10.458;2023-07-22T05:58:06;1651.13;;;999.90;;
7239;SDS011;3661;53.288;10.458;2023-07-22T06:00:47;1642.60;;;999.90;;
7239;SDS011;3661;53.288;10.458;2023-07-22T06:03:21;1654.35;;;999.90;;
7239;SDS011;3661;53.288;10.458;2023-07-22T06:05:53;1643.60;;;999.90;;
7239;SDS011;3661;53.288;10.458;2023-07-22T06:08:28;1637.47;;;999.90;;
7239;SDS011;3661;53.288;10.458;2023-07-22T06:11:00;1643.47;;;999.90;;
7239;SDS011;3661;53.288;10.458;2023-07-22T06:13:36;1660.70;;;999.90;;
7239;SDS011;3661;53.288;10.458;2023-07-22T06:16:10;1677.10;;;999.90;;
7239;SDS011;3661;53.288;10.458;2023-07-22T06:18:43;1664.28;;;999.90;;
7239;SDS011;3661;53.288;10.458;2023-07-22T06:21:16;1658.70;;;999.90;;
7239;SDS011;3661;53.288;10.458;2023-07-22T06:23:48;1659.05;;;999.90;;
7239;SDS011;3661;53.288;10.458;2023-07-22T06:26:20;1667.38;;;999.90;;
7239;SDS011;3661;53.288;10.458;2023-07-22T06:28:52;1652.18;;;999.90;;
7239;SDS011;3661;53.288;10.458;2023-07-22T06:31:25;1662.88;;;999.90;;
7239;SDS011;3661;53.288;10.458;2023-07-22T06:34:00;1663.17;;;999.90;;
7239;SDS011;3661;53.288;10.458;2023-07-22T06:36:33;1679.57;;;999.90;;
7239;SDS011;3661;53.288;10.458;2023-07-22T06:39:05;1687.78;;;999.90;;
7239;SDS011;3661;53.288;10.458;2023-07-22T06:41:38;1676.72;;;999.90;;
7239;SDS011;3661;53.288;10.458;2023-07-22T06:44:10;1689.00;;;999.90;;
7239;SDS011;3661;53.288;10.458;2023-07-22T06:46:43;1673.70;;;999.90;;
7239;SDS011;3661;53.288;10.458;2023-07-22T06:49:16;1684.32;;;999.90;;
7239;SDS011;3661;53.288;10.458;2023-07-22T06:51:48;1720.57;;;999.90;;
7239;SDS011;3661;53.288;10.458;2023-07-22T06:54:20;1697.60;;;999.90;;
7239;SDS011;3661;53.288;10.458;2023-07-22T06:56:56;1720.95;;;999.90;;
7239;SDS011;3661;53.288;10.458;2023-07-22T06:59:28;1694.43;;;999.90;;
7239;SDS011;3661;53.288;10.458;2023-07-22T07:02:02;1714.50;;;999.90;;
7239;SDS011;3661;53.288;10.458;2023-07-22T07:04:36;1699.07;;;999.90;;
7239;SDS011;3661;53.288;10.458;2023-07-22T07:07:08;1719.95;;;999.90;;
7239;SDS011;3661;53.288;10.458;2023-07-22T07:09:40;1726.45;;;999.90;;
7239;SDS011;3661;53.288;10.458;2023-07-22T07:12:13;1723.13;;;999.90;;
7239;SDS011;3661;53.288;10.458;2023-07-22T07:14:45;1733.07;;;999.90;;
7239;SDS011;3661;53.288;10.458;2023-07-22T07:17:27;1743.50;;;999.90;;
7239;SDS011;3661;53.288;10.458;2023-07-22T07:19:59;1757.88;;;999.90;;
7239;SDS011;3661;53.288;10.458;2023-07-22T07:22:34;1742.75;;;999.90;;
7239;SDS011;3661;53.288;10.458;2023-07-22T07:25:08;1769.90;;;999.90;;
7239;SDS011;3661;53.288;10.458;2023-07-22T07:27:42;1757.68;;;999.90;;
7239;SDS011;3661;53.288;10.458;2023-07-22T07:30:14;1767.13;;;999.90;;
7239;SDS011;3661;53.288;10.458;2023-07-22T07:32:48;1778.13;;;999.90;;
7239;SDS011;3661;53.288;10.458;2023-07-22T07:35:21;1770.30;;;999.90;;
7239;SDS011;3661;53.288;10.458;2023-07-22T07:37:56;1774.88;;;999.90;;
7239;SDS011;3661;53.288;10.458;2023-07-22T07:40:29;1777.23;;;999.90;;
7239;SDS011;3661;53.288;10.458;2023-07-22T07:43:02;1773.70;;;999.90;;
7239;SDS011;3661;53.288;10.458;2023-07-22T07:45:35;1797.45;;;999.90;;
7239;SDS011;3661;53.288;10.458;2023-07-22T07:48:14;1806.63;;;999.90;;
7239;SDS011;3661;53.288;10.458;2023-07-22T07:50:46;1798.97;;;999.90;;
7239;SDS011;3661;53.288;10.458;2023-07-22T07:53:18;1827.55;;;999.90;;
7239;SDS011;3661;53.288;10.458;2023-07-22T07:55:50;1812.32;;;999.90;;
7239;SDS011;3661;53.288;10.458;2023-07-22T07:58:24;1824.05;;;999.90;;
7239;SDS011;3661;53.288;10.458;2023-07-22T08:00:56;1804.75;;;999.90;;
7239;SDS011;3661;53.288;10.458;2023-07-22T08:03:29;1843.78;;;999.90;;
7239;SDS011;3661;53.288;10.458;2023-07-22T08:06:03;1829.30;;;999.90;;
7239;SDS011;3661;53.288;10.458;2023-07-22T08:08:37;1844.38;;;999.90;;
7239;SDS011;3661;53.288;10.458;2023-07-22T08:11:13;1866.85;;;999.90;;
7239;SDS011;3661;53.288;10.458;2023-07-22T08:13:45;1853.40;;;999.90;;
7239;SDS011;3661;53.288;10.458;2023-07-22T08:16:18;1871.03;;;999.90;;
7239;SDS011;3661;53.288;10.458;2023-07-22T08:18:52;1864.82;;;999.90;;
7239;SDS011;3661;53.288;10.458;2023-07-22T08:21:24;1844.20;;;999.90;;
7239;SDS011;3661;53.288;10.458;2023-07-22T08:23:56;1881.38;;;999.90;;
7239;SDS011;3661;53.288;10.458;2023-07-22T08:26:28;1880.40;;;999.90;;
7239;SDS011;3661;53.288;10.458;2023-07-22T08:29:00;1881.70;;;999.90;;
7239;SDS011;3661;53.288;10.458;2023-07-22T08:31:33;1875.82;;;999.90;;
7239;SDS011;3661;53.288;10.458;2023-07-22T08:34:08;1877.22;;;999.90;;
7239;SDS011;3661;53.288;10.458;2023-07-22T08:36:41;1898.65;;;999.90;;
7239;SDS011;3661;53.288;10.458;2023-07-22T08:39:14;1897.97;;;999.90;;
7239;SDS011;3661;53.288;10.458;2023-07-22T08:41:47;1928.55;;;999.90;;
7239;SDS011;3661;53.288;10.458;2023-07-22T08:44:21;1904.25;;;999.90;;
7239;SDS011;3661;53.288;10.458;2023-07-22T08:46:55;1897.32;;;999.90;;
7239;SDS011;3661;53.288;10.458;2023-07-22T08:49:36;1929.25;;;999.90;;
7239;SDS011;3661;53.288;10.458;2023-07-22T08:52:08;1907.40;;;999.90;;
7239;SDS011;3661;53.288;10.458;2023-07-22T08:54:40;1906.78;;;999.90;;
7239;SDS011;3661;53.288;10.458;2023-07-22T08:57:14;1922.03;;;999.90;;
7239;SDS011;3661;53.288;10.458;2023-07-22T08:59:47;1923.87;;;999.90;;
7239;SDS011;3661;53.288;10.458;2023-07-22T09:02:20;1929.78;;;999.90;;
7239;SDS011;3661;53.288;10.458;2023-07-22T09:04:54;1924.18;;;999.90;;
7239;SDS011;3661;53.288;10.458;2023-07-22T09:07:26;1938.45;;;999.90;;
7239;SDS011;3661;53.288;10.458;2023-07-22T09:09:59;1926.97;;;999.90;;
7239;SDS011;3661;53.288;10.458;2023-07-22T09:12:37;1934.95;;;999.90;;
7239;SDS011;3661;53.288;10.458;2023-07-22T09:15:11;1955.70;;;999.90;;
7239;SDS011;3661;53.288;10.458;2023-07-22T09:17:44;1955.97;;;999.90;;
7239;SDS011;3661;53.288;10.458;2023-07-22T09:20:20;1951.35;;;999.90;;
7239;SDS011;3661;53.288;10.458;2023-07-22T09:22:53;1979.03;;;999.90;;
7239;SDS011;3661;53.288;10.458;2023-07-22T09:25:25;1984.83;;;999.90;;
7239;SDS011;3661;53.288;10.458;2023-07-22T09:27:59;1977.43;;;999.90;;
7239;SDS011;3661;53.288;10.458;2023-07-22T09:30:32;1989.00;;;999.90;;
7239;SDS011;3661;53.288;10.458;2023-07-22T09:33:07;1993.78;;;999.90;;
7239;SDS011;3661;53.288;10.458;2023-07-22T09:35:53;1999.90;;;999.90;;
7239;SDS011;3661;53.288;10.458;2023-07-22T09:38:26;1999.90;;;999.90;;
7239;SDS011;3661;53.288;10.458;2023-07-22T09:40:59;1999.90;;;999.90;;
7239;SDS011;3661;53.288;10.458;2023-07-22T09:43:31;1999.90;;;999.90;;
7239;SDS011;3661;53.288;10.458;2023-07-22T09:46:08;1999.90;;;999.90;;
7239;SDS011;3661;53.288;10.458;2023-07-22T09:48:42;1999.90;;;999.90;;
7239;SDS011;3661;53.288;10.458;2023-07-22T09:51:18;1999.90;;;999.90;;
7239;SDS011;3661;53.288;10.458;2023-07-22T09:53:59;1999.90;;;999.90;;
7239;SDS011;3661;53.288;10.458;2023-07-22T09:56:42;1999.90;;;999.90;;
7239;SDS011;3661;53.288;10.458;2023-07-22T09:59:17;1999.90;;;999.90;;
7239;SDS011;3661;53.288;10.458;2023-07-22T10:01:50;1999.90;;;999.90;;
7239;SDS011;3661;53.288;10.458;2023-07-22T10:04:23;1999.90;;;999.90;;
7239;SDS011;3661;53.288;10.458;2023-07-22T10:07:04;1999.90;;;999.90;;
7239;SDS011;3661;53.288;10.458;2023-07-22T10:09:41;1999.90;;;999.90;;
7239;SDS011;3661;53.288;10.458;2023-07-22T10:12:14;1999.90;;;999.90;;
7239;SDS011;3661;53.288;10.458;2023-07-22T10:14:48;1999.90;;;999.90;;
7239;SDS011;3661;53.288;10.458;2023-07-22T10:17:25;1999.90;;;999.90;;
7239;SDS011;3661;53.288;10.458;2023-07-22T10:20:02;1999.90;;;999.90;;
7239;SDS011;3661;53.288;10.458;2023-07-22T10:25:30;1999.90;;;999.90;;
7239;SDS011;3661;53.288;10.458;2023-07-22T10:51:48;1989.25;;;999.90;;
7239;SDS011;3661;53.288;10.458;2023-07-22T10:54:33;1999.90;;;999.90;;
7239;SDS011;3661;53.288;10.458;2023-07-22T10:59:56;1999.90;;;999.90;;
7239;SDS011;3661;53.288;10.458;2023-07-22T11:02:30;1999.90;;;999.90;;
7239;SDS011;3661;53.288;10.458;2023-07-22T11:05:02;1999.90;;;999.90;;
7239;SDS011;3661;53.288;10.458;2023-07-22T11:07:41;1999.90;;;999.90;;
7239;SDS011;3661;53.288;10.458;2023-07-22T11:10:17;1999.90;;;999.90;;
7239;SDS011;3661;53.288;10.458;2023-07-22T11:12:50;1999.90;;;999.90;;
7239;SDS011;3661;53.288;10.458;2023-07-22T11:15:22;1999.90;;;999.90;;
7239;SDS011;3661;53.288;10.458;2023-07-22T11:18:00;1999.90;;;999.90;;
7239;SDS011;3661;53.288;10.458;2023-07-22T11:20:33;1999.90;;;999.90;;
7239;SDS011;3661;53.288;10.458;2023-07-22T11:23:06;1999.90;;;999.90;;
7239;SDS011;3661;53.288;10.458;2023-07-22T11:25:39;1999.90;;;999.90;;
7239;SDS011;3661;53.288;10.458;2023-07-22T11:28:13;1999.90;;;999.90;;
7239;SDS011;3661;53.288;10.458;2023-07-22T16:15:30;8.00;;;7.38;;
7239;SDS011;3661;53.288;10.458;2023-07-22T16:18:02;8.43;;;7.97;;
7239;SDS011;3661;53.288;10.458;2023-07-22T16:20:37;8.80;;;8.40;;
7239;SDS011;3661;53.288;10.458;2023-07-22T16:23:10;8.02;;;7.63;;
7239;SDS011;3661;53.288;10.458;2023-07-22T16:25:42;8.95;;;8.50;;
7239;SDS011;3661;53.288;10.458;2023-07-22T16:28:14;7.93;;;7.53;;
7239;SDS011;3661;53.288;10.458;2023-07-22T16:30:48;8.15;;;7.80;;
7239;SDS011;3661;53.288;10.458;2023-07-22T16:33:20;8.25;;;7.75;;
7239;SDS011;3661;53.288;10.458;2023-07-22T16:35:52;8.93;;;8.52;;
7239;SDS011;3661;53.288;10.458;2023-07-22T16:38:24;8.45;;;7.95;;
7239;SDS011;3661;53.288;10.458;2023-07-22T16:40:56;9.50;;;8.73;;
7239;SDS011;3661;53.288;10.458;2023-07-22T16:43:33;9.30;;;8.60;;
7239;SDS011;3661;53.288;10.458;2023-07-22T16:46:12;9.05;;;8.55;;
7239;SDS011;3661;53.288;10.458;2023-07-22T16:48:48;9.65;;;8.93;;
7239;SDS011;3661;53.288;10.458;2023-07-22T16:51:20;8.90;;;8.27;;
7239;SDS011;3661;53.288;10.458;2023-07-22T16:53:53;8.57;;;7.85;;
7239;SDS011;3661;53.288;10.458;2023-07-22T16:56:25;7.88;;;7.57;;
7239;SDS011;3661;53.288;10.458;2023-07-22T16:58:57;7.90;;;7.28;;
7239;SDS011;3661;53.288;10.458;2023-07-22T17:01:31;8.07;;;7.68;;
7239;SDS011;3661;53.288;10.458;2023-07-22T17:04:03;9.15;;;8.65;;
7239;SDS011;3661;53.288;10.458;2023-07-22T17:06:37;9.00;;;8.50;;
7239;SDS011;3661;53.288;10.458;2023-07-22T17:09:10;9.80;;;9.30;;
7239;SDS011;3661;53.288;10.458;2023-07-22T17:11:43;10.10;;;9.60;;
7239;SDS011;3661;53.288;10.458;2023-07-22T17:14:16;9.18;;;8.77;;
7239;SDS011;3661;53.288;10.458;2023-07-22T17:16:50;8.57;;;8.13;;
7239;SDS011;3661;53.288;10.458;2023-07-22T17:19:22;9.30;;;8.80;;
7239;SDS011;3661;53.288;10.458;2023-07-22T17:21:54;10.88;;;10.13;;
7239;SDS011;3661;53.288;10.458;2023-07-22T17:24:26;11.10;;;10.48;;
7239;SDS011;3661;53.288;10.458;2023-07-22T17:26:58;10.98;;;10.45;;
7239;SDS011;3661;53.288;10.458;2023-07-22T17:29:30;9.70;;;8.80;;
7239;SDS011;3661;53.288;10.458;2023-07-22T17:32:07;8.48;;;8.13;;
7239;SDS011;3661;53.288;10.458;2023-07-22T17:34:39;9.35;;;8.85;;
7239;SDS011;3661;53.288;10.458;2023-07-22T17:37:11;9.60;;;9.10;;
7239;SDS011;3661;53.288;10.458;2023-07-22T17:39:44;10.43;;;9.82;;
7239;SDS011;3661;53.288;10.458;2023-07-22T17:42:16;10.52;;;10.02;;
7239;SDS011;3661;53.288;10.458;2023-07-22T17:44:48;10.63;;;10.13;;
7239;SDS011;3661;53.288;10.458;2023-07-22T17:47:22;9.82;;;9.32;;
7239;SDS011;3661;53.288;10.458;2023-07-22T17:49:54;9.70;;;9.27;;
7239;SDS011;3661;53.288;10.458;2023-07-22T17:52:28;9.90;;;9.40;;
7239;SDS011;3661;53.288;10.458;2023-07-22T17:55:00;10.30;;;9.70;;
7239;SDS011;3661;53.288;10.458;2023-07-22T17:57:32;11.15;;;10.35;;
7239;SDS011;3661;53.288;10.458;2023-07-22T18:00:05;11.93;;;11.32;;
7239;SDS011;3661;53.288;10.458;2023-07-22T18:02:47;10.10;;;9.60;;
7239;SDS011;3661;53.288;10.458;2023-07-22T18:05:19;9.25;;;8.82;;
7239;SDS011;3661;53.288;10.458;2023-07-22T18:07:58;9.60;;;9.10;;
7239;SDS011;3661;53.288;10.458;2023-07-22T18:10:30;12.15;;;11.50;;
7239;SDS011;3661;53.288;10.458;2023-07-22T18:13:03;12.05;;;11.35;;
7239;SDS011;3661;53.288;10.458;2023-07-22T18:15:38;11.00;;;10.45;;
7239;SDS011;3661;53.288;10.458;2023-07-22T18:18:17;10.82;;;10.13;;
7239;SDS011;3661;53.288;10.458;2023-07-22T18:20:51;10.57;;;10.07;;
7239;SDS011;3661;53.288;10.458;2023-07-22T18:23:23;8.77;;;8.38;;
7239;SDS011;3661;53.288;10.458;2023-07-22T18:25:55;9.18;;;8.77;;
7239;SDS011;3661;53.288;10.458;2023-07-22T18:28:27;9.23;;;8.73;;
7239;SDS011;3661;53.288;10.458;2023-07-22T18:30:59;10.13;;;9.63;;
7239;SDS011;3661;53.288;10.458;2023-07-22T18:33:33;9.60;;;9.10;;
7239;SDS011;3661;53.288;10.458;2023-07-22T18:36:07;8.18;;;7.68;;
7239;SDS011;3661;53.288;10.458;2023-07-22T18:38:40;9.63;;;9.02;;
7239;SDS011;3661;53.288;10.458;2023-07-22T18:41:15;9.55;;;9.05;;
7239;SDS011;3661;53.288;10.458;2023-07-22T18:43:47;10.82;;;10.23;;
7239;SDS011;3661;53.288;10.458;2023-07-22T18:46:20;10.43;;;9.82;;
7239;SDS011;3661;53.288;10.458;2023-07-22T18:48:54;10.57;;;9.98;;
7239;SDS011;3661;53.288;10.458;2023-07-22T18:51:26;9.80;;;9.30;;
7239;SDS011;3661;53.288;10.458;2023-07-22T18:54:01;10.32;;;9.73;;
7239;SDS011;3661;53.288;10.458;2023-07-22T18:56:33;9.93;;;9.43;;
7239;SDS011;3661;53.288;10.458;2023-07-22T18:59:06;9.50;;;8.90;;
7239;SDS011;3661;53.288;10.458;2023-07-22T19:01:38;11.45;;;10.75;;
7239;SDS011;3661;53.288;10.458;2023-07-22T19:04:11;10.35;;;9.75;;
7239;SDS011;3661;53.288;10.458;2023-07-22T19:06:43;10.32;;;9.63;;
7239;SDS011;3661;53.288;10.458;2023-07-22T19:09:25;10.02;;;9.48;;
7239;SDS011;3661;53.288;10.458;2023-07-22T19:18:09;10.73;;;10.23;;
7239;SDS011;3661;53.288;10.458;2023-07-22T19:20:42;11.77;;;11.18;;
7239;SDS011;3661;53.288;10.458;2023-07-22T19:23:16;10.73;;;10.23;;
7239;SDS011;3661;53.288;10.458;2023-07-22T19:32:58;12.32;;;11.63;;
7239;SDS011;3661;53.288;10.458;2023-07-22T19:35:33;12.02;;;11.38;;
7239;SDS011;3661;53.288;10.458;2023-07-22T19:58:08;12.50;;;11.90;;
7239;SDS011;3661;53.288;10.458;2023-07-22T20:00:57;13.10;;;12.23;;
7239;SDS011;3661;53.288;10.458;2023-07-22T20:03:44;14.07;;;13.27;;
7239;SDS011;3661;53.288;10.458;2023-07-22T20:06:18;12.60;;;12.00;;
7239;SDS011;3661;53.288;10.458;2023-07-22T20:08:53;13.80;;;13.10;;
7239;SDS011;3661;53.288;10.458;2023-07-22T20:11:25;12.53;;;11.93;;
7239;SDS011;3661;53.288;10.458;2023-07-22T20:14:06;12.80;;;12.00;;
7239;SDS011;3661;53.288;10.458;2023-07-22T20:16:38;13.67;;;12.87;;
7239;SDS011;3661;53.288;10.458;2023-07-22T20:19:10;13.03;;;12.23;;
7239;SDS011;3661;53.288;10.458;2023-07-22T20:21:44;12.73;;;11.90;;
7239;SDS011;3661;53.288;10.458;2023-07-22T20:24:16;13.93;;;13.03;;
7239;SDS011;3661;53.288;10.458;2023-07-22T20:26:48;13.53;;;12.83;;
7239;SDS011;3661;53.288;10.458;2023-07-22T20:29:20;13.00;;;12.20;;
7239;SDS011;3661;53.288;10.458;2023-07-22T20:31:55;13.97;;;13.27;;